sensor_id;sensor_type;location;lat;lon;timestamp;P1;durP1;ratioP1;P2;durP2;ratioP2
71395;SDS011;59888;55.814;37.132;2023-02-28T00:01:41;6.80;;;3.15;;
71395;SDS011;59888;55.814;37.132;2023-02-28T00:04:07;7.43;;;3.50;;
71395;SDS011;59888;55.814;37.132;2023-02-28T00:06:34;6.70;;;3.33;;
71395;SDS011;59888;55.814;37.132;2023-02-28T00:09:00;7.95;;;3.60;;
71395;SDS011;59888;55.814;37.132;2023-02-28T00:11:26;7.20;;;3.45;;
71395;SDS011;59888;55.814;37.132;2023-02-28T00:13:52;8.27;;;3.65;;
71395;SDS011;59888;55.814;37.132;2023-02-28T00:16:19;6.13;;;3.45;;
71395;SDS011;59888;55.814;37.132;2023-02-28T00:18:46;8.50;;;3.85;;
71395;SDS011;59888;55.814;37.132;2023-02-28T00:21:15;6.93;;;3.17;;
71395;SDS011;59888;55.814;37.132;2023-02-28T00:23:42;8.90;;;4.18;;
71395;SDS011;59888;55.814;37.132;2023-02-28T00:26:09;6.90;;;3.47;;
71395;SDS011;59888;55.814;37.132;2023-02-28T00:28:36;7.40;;;3.15;;
71395;SDS011;59888;55.814;37.132;2023-02-28T00:31:02;6.78;;;3.45;;
71395;SDS011;59888;55.814;37.132;2023-02-28T00:33:28;7.47;;;4.40;;
71395;SDS011;59888;55.814;37.132;2023-02-28T00:36:02;7.60;;;3.35;;
71395;SDS011;59888;55.814;37.132;2023-02-28T00:38:35;6.60;;;3.13;;
71395;SDS011;59888;55.814;37.132;2023-02-28T00:41:02;9.48;;;3.38;;
71395;SDS011;59888;55.814;37.132;2023-02-28T00:43:30;7.22;;;3.03;;
71395;SDS011;59888;55.814;37.132;2023-02-28T00:46:00;6.05;;;3.38;;
71395;SDS011;59888;55.814;37.132;2023-02-28T00:48:27;9.20;;;4.20;;
71395;SDS011;59888;55.814;37.132;2023-02-28T00:50:53;9.85;;;4.15;;
71395;SDS011;59888;55.814;37.132;2023-02-28T00:53:19;6.85;;;3.38;;
71395;SDS011;59888;55.814;37.132;2023-02-28T00:55:48;8.23;;;3.75;;
71395;SDS011;59888;55.814;37.132;2023-02-28T00:58:14;7.85;;;3.25;;
71395;SDS011;59888;55.814;37.132;2023-02-28T01:00:40;9.00;;;3.60;;
71395;SDS011;59888;55.814;37.132;2023-02-28T01:03:06;8.27;;;3.60;;
71395;SDS011;59888;55.814;37.132;2023-02-28T01:05:32;8.07;;;3.75;;
71395;SDS011;59888;55.814;37.132;2023-02-28T01:07:58;6.10;;;3.33;;
71395;SDS011;59888;55.814;37.132;2023-02-28T01:10:24;8.27;;;3.63;;
71395;SDS011;59888;55.814;37.132;2023-02-28T01:12:50;7.32;;;3.50;;
71395;SDS011;59888;55.814;37.132;2023-02-28T01:15:16;8.57;;;3.38;;
71395;SDS011;59888;55.814;37.132;2023-02-28T01:17:44;7.05;;;3.10;;
71395;SDS011;59888;55.814;37.132;2023-02-28T01:20:10;7.53;;;4.07;;
71395;SDS011;59888;55.814;37.132;2023-02-28T01:22:36;7.97;;;4.05;;
71395;SDS011;59888;55.814;37.132;2023-02-28T01:25:01;8.73;;;4.32;;
71395;SDS011;59888;55.814;37.132;2023-02-28T01:27:30;8.05;;;3.72;;
71395;SDS011;59888;55.814;37.132;2023-02-28T01:29:57;6.90;;;3.08;;
71395;SDS011;59888;55.814;37.132;2023-02-28T01:32:23;6.32;;;3.33;;
71395;SDS011;59888;55.814;37.132;2023-02-28T01:34:49;8.07;;;3.85;;
71395;SDS011;59888;55.814;37.132;2023-02-28T01:37:15;7.72;;;3.53;;
71395;SDS011;59888;55.814;37.132;2023-02-28T01:39:43;7.63;;;3.50;;
71395;SDS011;59888;55.814;37.132;2023-02-28T01:42:09;8.88;;;3.78;;
71395;SDS011;59888;55.814;37.132;2023-02-28T01:47:29;6.75;;;3.78;;
71395;SDS011;59888;55.814;37.132;2023-02-28T01:49:58;8.30;;;3.88;;
71395;SDS011;59888;55.814;37.132;2023-02-28T01:52:29;7.38;;;3.95;;
71395;SDS011;59888;55.814;37.132;2023-02-28T01:54:58;8.10;;;3.72;;
71395;SDS011;59888;55.814;37.132;2023-02-28T01:57:27;8.98;;;4.05;;
71395;SDS011;59888;55.814;37.132;2023-02-28T02:00:07;6.90;;;3.72;;
71395;SDS011;59888;55.814;37.132;2023-02-28T02:02:39;8.77;;;3.55;;
71395;SDS011;59888;55.814;37.132;2023-02-28T02:05:10;9.90;;;4.15;;
71395;SDS011;59888;55.814;37.132;2023-02-28T02:07:40;7.80;;;3.53;;
71395;SDS011;59888;55.814;37.132;2023-02-28T02:10:13;9.38;;;3.58;;
71395;SDS011;59888;55.814;37.132;2023-02-28T02:18:44;9.23;;;4.50;;
71395;SDS011;59888;55.814;37.132;2023-02-28T02:32:14;7.88;;;3.80;;
71395;SDS011;59888;55.814;37.132;2023-02-28T02:45:59;6.45;;;3.17;;
71395;SDS011;59888;55.814;37.132;2023-02-28T02:48:32;7.57;;;3.10;;
71395;SDS011;59888;55.814;37.132;2023-02-28T02:51:01;5.05;;;2.67;;
71395;SDS011;59888;55.814;37.132;2023-02-28T02:53:32;7.70;;;2.58;;
71395;SDS011;59888;55.814;37.132;2023-02-28T02:56:02;7.32;;;3.53;;
71395;SDS011;59888;55.814;37.132;2023-02-28T02:58:34;6.18;;;3.05;;
71395;SDS011;59888;55.814;37.132;2023-02-28T03:01:10;7.63;;;3.08;;
71395;SDS011;59888;55.814;37.132;2023-02-28T03:03:40;8.15;;;3.40;;
71395;SDS011;59888;55.814;37.132;2023-02-28T03:06:06;7.97;;;4.07;;
71395;SDS011;59888;55.814;37.132;2023-02-28T03:08:36;6.97;;;2.85;;
71395;SDS011;59888;55.814;37.132;2023-02-28T03:11:07;5.35;;;2.85;;
71395;SDS011;59888;55.814;37.132;2023-02-28T03:24:32;6.85;;;3.30;;
71395;SDS011;59888;55.814;37.132;2023-02-28T03:27:19;6.47;;;3.42;;
71395;SDS011;59888;55.814;37.132;2023-02-28T03:29:57;6.57;;;3.05;;
71395;SDS011;59888;55.814;37.132;2023-02-28T03:32:35;7.00;;;3.03;;
71395;SDS011;59888;55.814;37.132;2023-02-28T03:35:14;6.20;;;3.17;;
71395;SDS011;59888;55.814;37.132;2023-02-28T03:37:50;6.50;;;2.65;;
71395;SDS011;59888;55.814;37.132;2023-02-28T03:40:19;10.00;;;3.40;;
71395;SDS011;59888;55.814;37.132;2023-02-28T03:42:49;5.47;;;2.83;;
71395;SDS011;59888;55.814;37.132;2023-02-28T03:45:21;5.35;;;3.15;;
71395;SDS011;59888;55.814;37.132;2023-02-28T03:50:29;6.07;;;2.92;;
71395;SDS011;59888;55.814;37.132;2023-02-28T03:53:07;5.07;;;2.22;;
71395;SDS011;59888;55.814;37.132;2023-02-28T03:55:48;5.65;;;3.10;;
71395;SDS011;59888;55.814;37.132;2023-02-28T03:58:25;5.70;;;3.10;;
71395;SDS011;59888;55.814;37.132;2023-02-28T04:01:54;5.60;;;3.03;;
71395;SDS011;59888;55.814;37.132;2023-02-28T04:03:54;7.80;;;3.17;;
71395;SDS011;59888;55.814;37.132;2023-02-28T04:06:21;6.00;;;3.15;;
71395;SDS011;59888;55.814;37.132;2023-02-28T04:08:48;7.40;;;3.30;;
71395;SDS011;59888;55.814;37.132;2023-02-28T04:14:17;7.00;;;3.42;;
71395;SDS011;59888;55.814;37.132;2023-02-28T04:16:43;6.35;;;3.22;;
71395;SDS011;59888;55.814;37.132;2023-02-28T04:19:10;8.15;;;3.20;;
71395;SDS011;59888;55.814;37.132;2023-02-28T04:21:39;8.07;;;3.45;;
71395;SDS011;59888;55.814;37.132;2023-02-28T04:24:13;7.03;;;3.45;;
71395;SDS011;59888;55.814;37.132;2023-02-28T04:26:42;6.57;;;3.35;;
71395;SDS011;59888;55.814;37.132;2023-02-28T04:29:13;7.70;;;3.05;;
71395;SDS011;59888;55.814;37.132;2023-02-28T04:31:44;5.95;;;2.63;;
71395;SDS011;59888;55.814;37.132;2023-02-28T04:34:10;8.15;;;3.40;;
71395;SDS011;59888;55.814;37.132;2023-02-28T04:36:35;5.57;;;2.83;;
71395;SDS011;59888;55.814;37.132;2023-02-28T04:39:02;7.85;;;3.20;;
71395;SDS011;59888;55.814;37.132;2023-02-28T04:41:29;7.18;;;3.00;;
71395;SDS011;59888;55.814;37.132;2023-02-28T04:43:55;5.88;;;2.70;;
71395;SDS011;59888;55.814;37.132;2023-02-28T04:46:21;5.95;;;2.65;;
71395;SDS011;59888;55.814;37.132;2023-02-28T04:48:48;5.75;;;2.45;;
71395;SDS011;59888;55.814;37.132;2023-02-28T04:51:15;6.00;;;2.67;;
71395;SDS011;59888;55.814;37.132;2023-02-28T04:53:42;6.03;;;2.33;;
71395;SDS011;59888;55.814;37.132;2023-02-28T04:56:10;6.75;;;3.08;;
71395;SDS011;59888;55.814;37.132;2023-02-28T04:58:38;8.07;;;2.83;;
71395;SDS011;59888;55.814;37.132;2023-02-28T05:01:05;5.35;;;2.42;;
71395;SDS011;59888;55.814;37.132;2023-02-28T05:03:43;7.43;;;3.30;;
71395;SDS011;59888;55.814;37.132;2023-02-28T05:06:09;5.10;;;2.63;;
71395;SDS011;59888;55.814;37.132;2023-02-28T05:08:37;5.10;;;2.35;;
71395;SDS011;59888;55.814;37.132;2023-02-28T05:11:03;5.72;;;2.72;;
71395;SDS011;59888;55.814;37.132;2023-02-28T05:13:29;4.78;;;2.67;;
71395;SDS011;59888;55.814;37.132;2023-02-28T05:15:55;6.25;;;2.90;;
71395;SDS011;59888;55.814;37.132;2023-02-28T05:18:21;4.10;;;2.38;;
71395;SDS011;59888;55.814;37.132;2023-02-28T05:20:47;4.72;;;2.33;;
71395;SDS011;59888;55.814;37.132;2023-02-28T05:23:13;4.88;;;2.38;;
71395;SDS011;59888;55.814;37.132;2023-02-28T05:25:40;6.43;;;3.20;;
71395;SDS011;59888;55.814;37.132;2023-02-28T05:28:07;6.35;;;2.80;;
71395;SDS011;59888;55.814;37.132;2023-02-28T05:30:33;5.50;;;2.45;;
71395;SDS011;59888;55.814;37.132;2023-02-28T05:32:59;5.70;;;3.13;;
71395;SDS011;59888;55.814;37.132;2023-02-28T05:35:26;6.78;;;2.85;;
71395;SDS011;59888;55.814;37.132;2023-02-28T05:37:52;5.38;;;2.38;;
71395;SDS011;59888;55.814;37.132;2023-02-28T05:40:18;6.50;;;2.53;;
71395;SDS011;59888;55.814;37.132;2023-02-28T05:42:47;4.90;;;2.58;;
71395;SDS011;59888;55.814;37.132;2023-02-28T05:45:15;5.38;;;2.47;;
71395;SDS011;59888;55.814;37.132;2023-02-28T05:47:42;6.35;;;2.20;;
71395;SDS011;59888;55.814;37.132;2023-02-28T05:50:08;5.05;;;2.75;;
71395;SDS011;59888;55.814;37.132;2023-02-28T05:52:35;4.95;;;2.63;;
71395;SDS011;59888;55.814;37.132;2023-02-28T05:55:03;5.72;;;2.80;;
71395;SDS011;59888;55.814;37.132;2023-02-28T05:57:29;4.15;;;2.20;;
71395;SDS011;59888;55.814;37.132;2023-02-28T05:59:55;5.80;;;2.42;;
71395;SDS011;59888;55.814;37.132;2023-02-28T06:02:20;5.15;;;2.40;;
71395;SDS011;59888;55.814;37.132;2023-02-28T06:04:46;6.68;;;2.25;;
71395;SDS011;59888;55.814;37.132;2023-02-28T06:07:12;5.78;;;2.80;;
71395;SDS011;59888;55.814;37.132;2023-02-28T06:09:38;4.25;;;2.28;;
71395;SDS011;59888;55.814;37.132;2023-02-28T06:12:05;4.07;;;2.00;;
71395;SDS011;59888;55.814;37.132;2023-02-28T06:14:33;4.53;;;2.17;;
71395;SDS011;59888;55.814;37.132;2023-02-28T06:16:59;4.97;;;2.47;;
71395;SDS011;59888;55.814;37.132;2023-02-28T06:19:26;4.97;;;2.17;;
71395;SDS011;59888;55.814;37.132;2023-02-28T06:21:52;5.63;;;2.20;;
71395;SDS011;59888;55.814;37.132;2023-02-28T06:24:19;5.78;;;2.65;;
71395;SDS011;59888;55.814;37.132;2023-02-28T06:26:46;5.07;;;2.35;;
71395;SDS011;59888;55.814;37.132;2023-02-28T06:29:12;5.10;;;2.55;;
71395;SDS011;59888;55.814;37.132;2023-02-28T06:31:42;5.03;;;2.00;;
71395;SDS011;59888;55.814;37.132;2023-02-28T06:34:12;5.00;;;2.22;;
71395;SDS011;59888;55.814;37.132;2023-02-28T06:36:38;5.90;;;2.45;;
71395;SDS011;59888;55.814;37.132;2023-02-28T06:39:06;6.13;;;2.25;;
71395;SDS011;59888;55.814;37.132;2023-02-28T06:41:32;5.63;;;2.42;;
71395;SDS011;59888;55.814;37.132;2023-02-28T06:44:03;4.00;;;1.92;;
71395;SDS011;59888;55.814;37.132;2023-02-28T06:46:31;4.03;;;2.08;;
71395;SDS011;59888;55.814;37.132;2023-02-28T06:48:57;5.45;;;2.13;;
71395;SDS011;59888;55.814;37.132;2023-02-28T06:51:23;8.43;;;2.60;;
71395;SDS011;59888;55.814;37.132;2023-02-28T06:53:49;6.07;;;2.45;;
71395;SDS011;59888;55.814;37.132;2023-02-28T06:56:16;4.43;;;1.92;;
71395;SDS011;59888;55.814;37.132;2023-02-28T06:58:47;3.58;;;1.85;;
71395;SDS011;59888;55.814;37.132;2023-02-28T07:01:18;4.80;;;2.20;;
71395;SDS011;59888;55.814;37.132;2023-02-28T07:03:44;3.47;;;1.90;;
71395;SDS011;59888;55.814;37.132;2023-02-28T07:06:11;4.38;;;2.15;;
71395;SDS011;59888;55.814;37.132;2023-02-28T07:08:38;4.75;;;2.55;;
71395;SDS011;59888;55.814;37.132;2023-02-28T07:11:05;6.07;;;2.03;;
71395;SDS011;59888;55.814;37.132;2023-02-28T07:13:31;4.53;;;2.20;;
71395;SDS011;59888;55.814;37.132;2023-02-28T07:16:00;4.65;;;2.25;;
71395;SDS011;59888;55.814;37.132;2023-02-28T07:18:28;7.68;;;3.40;;
71395;SDS011;59888;55.814;37.132;2023-02-28T07:20:54;5.90;;;2.70;;
71395;SDS011;59888;55.814;37.132;2023-02-28T07:23:21;4.65;;;2.42;;
71395;SDS011;59888;55.814;37.132;2023-02-28T07:25:47;4.78;;;2.30;;
71395;SDS011;59888;55.814;37.132;2023-02-28T07:28:15;4.68;;;2.20;;
71395;SDS011;59888;55.814;37.132;2023-02-28T07:30:41;4.75;;;2.00;;
71395;SDS011;59888;55.814;37.132;2023-02-28T07:33:08;4.65;;;2.30;;
71395;SDS011;59888;55.814;37.132;2023-02-28T07:35:34;5.32;;;2.45;;
71395;SDS011;59888;55.814;37.132;2023-02-28T07:38:00;4.13;;;2.38;;
71395;SDS011;59888;55.814;37.132;2023-02-28T07:40:26;7.03;;;2.67;;
71395;SDS011;59888;55.814;37.132;2023-02-28T07:42:52;3.38;;;1.75;;
71395;SDS011;59888;55.814;37.132;2023-02-28T07:45:18;5.25;;;2.20;;
71395;SDS011;59888;55.814;37.132;2023-02-28T07:47:45;6.50;;;2.38;;
71395;SDS011;59888;55.814;37.132;2023-02-28T07:50:12;4.88;;;2.10;;
71395;SDS011;59888;55.814;37.132;2023-02-28T07:52:40;5.25;;;2.00;;
71395;SDS011;59888;55.814;37.132;2023-02-28T07:55:07;5.30;;;2.15;;
71395;SDS011;59888;55.814;37.132;2023-02-28T07:57:34;5.03;;;1.73;;
71395;SDS011;59888;55.814;37.132;2023-02-28T08:00:01;4.25;;;2.50;;
71395;SDS011;59888;55.814;37.132;2023-02-28T08:02:37;4.10;;;1.90;;
71395;SDS011;59888;55.814;37.132;2023-02-28T08:05:03;4.40;;;2.08;;
71395;SDS011;59888;55.814;37.132;2023-02-28T08:07:29;4.95;;;2.00;;
71395;SDS011;59888;55.814;37.132;2023-02-28T08:09:55;3.20;;;1.63;;
71395;SDS011;59888;55.814;37.132;2023-02-28T08:12:21;4.25;;;1.92;;
71395;SDS011;59888;55.814;37.132;2023-02-28T08:14:47;4.03;;;1.85;;
71395;SDS011;59888;55.814;37.132;2023-02-28T08:17:13;4.95;;;2.38;;
71395;SDS011;59888;55.814;37.132;2023-02-28T08:19:38;4.35;;;2.15;;
71395;SDS011;59888;55.814;37.132;2023-02-28T08:22:04;4.85;;;2.38;;
71395;SDS011;59888;55.814;37.132;2023-02-28T08:24:30;7.28;;;2.30;;
71395;SDS011;59888;55.814;37.132;2023-02-28T08:26:56;4.15;;;2.00;;
71395;SDS011;59888;55.814;37.132;2023-02-28T08:29:22;4.10;;;2.38;;
71395;SDS011;59888;55.814;37.132;2023-02-28T08:31:48;5.75;;;2.38;;
71395;SDS011;59888;55.814;37.132;2023-02-28T08:34:14;5.75;;;1.77;;
71395;SDS011;59888;55.814;37.132;2023-02-28T08:36:41;5.15;;;1.98;;
71395;SDS011;59888;55.814;37.132;2023-02-28T08:39:09;4.95;;;1.90;;
71395;SDS011;59888;55.814;37.132;2023-02-28T08:41:35;4.22;;;1.83;;
71395;SDS011;59888;55.814;37.132;2023-02-28T08:44:02;5.50;;;2.10;;
71395;SDS011;59888;55.814;37.132;2023-02-28T08:46:28;4.55;;;2.30;;
71395;SDS011;59888;55.814;37.132;2023-02-28T08:48:54;8.10;;;2.28;;
71395;SDS011;59888;55.814;37.132;2023-02-28T08:51:24;3.88;;;2.00;;
71395;SDS011;59888;55.814;37.132;2023-02-28T08:53:58;4.03;;;2.05;;
71395;SDS011;59888;55.814;37.132;2023-02-28T08:56:26;6.05;;;2.15;;
71395;SDS011;59888;55.814;37.132;2023-02-28T08:58:54;5.63;;;2.30;;
71395;SDS011;59888;55.814;37.132;2023-02-28T09:01:22;5.60;;;2.22;;
71395;SDS011;59888;55.814;37.132;2023-02-28T09:03:53;4.88;;;2.28;;
71395;SDS011;59888;55.814;37.132;2023-02-28T09:06:21;4.65;;;2.10;;
71395;SDS011;59888;55.814;37.132;2023-02-28T09:08:48;4.90;;;2.40;;
71395;SDS011;59888;55.814;37.132;2023-02-28T09:11:15;4.38;;;2.00;;
71395;SDS011;59888;55.814;37.132;2023-02-28T09:13:41;3.38;;;1.95;;
71395;SDS011;59888;55.814;37.132;2023-02-28T09:16:08;4.03;;;1.60;;
71395;SDS011;59888;55.814;37.132;2023-02-28T09:18:36;3.65;;;1.88;;
71395;SDS011;59888;55.814;37.132;2023-02-28T09:21:05;4.25;;;2.03;;
71395;SDS011;59888;55.814;37.132;2023-02-28T09:23:32;3.92;;;1.83;;
71395;SDS011;59888;55.814;37.132;2023-02-28T09:25:58;4.60;;;2.22;;
71395;SDS011;59888;55.814;37.132;2023-02-28T09:28:24;5.07;;;2.30;;
71395;SDS011;59888;55.814;37.132;2023-02-28T09:30:51;5.03;;;2.50;;
71395;SDS011;59888;55.814;37.132;2023-02-28T09:33:19;8.32;;;2.85;;
71395;SDS011;59888;55.814;37.132;2023-02-28T09:35:49;7.07;;;2.65;;
71395;SDS011;59888;55.814;37.132;2023-02-28T09:38:17;12.00;;;2.90;;
71395;SDS011;59888;55.814;37.132;2023-02-28T09:40:56;4.47;;;2.15;;
71395;SDS011;59888;55.814;37.132;2023-02-28T09:43:25;7.32;;;2.28;;
71395;SDS011;59888;55.814;37.132;2023-02-28T09:48:46;2.95;;;1.50;;
71395;SDS011;59888;55.814;37.132;2023-02-28T09:51:25;5.78;;;2.00;;
71395;SDS011;59888;55.814;37.132;2023-02-28T09:54:00;5.63;;;2.10;;
71395;SDS011;59888;55.814;37.132;2023-02-28T09:56:29;4.93;;;2.08;;
71395;SDS011;59888;55.814;37.132;2023-02-28T09:59:09;5.85;;;2.22;;
71395;SDS011;59888;55.814;37.132;2023-02-28T10:02:18;5.43;;;2.00;;
71395;SDS011;59888;55.814;37.132;2023-02-28T10:05:14;7.15;;;2.10;;
71395;SDS011;59888;55.814;37.132;2023-02-28T10:13:04;4.50;;;2.15;;
71395;SDS011;59888;55.814;37.132;2023-02-28T10:15:56;3.97;;;1.70;;
71395;SDS011;59888;55.814;37.132;2023-02-28T10:18:29;4.03;;;2.88;;
71395;SDS011;59888;55.814;37.132;2023-02-28T10:21:02;5.20;;;2.25;;
71395;SDS011;59888;55.814;37.132;2023-02-28T10:23:31;5.18;;;2.13;;
71395;SDS011;59888;55.814;37.132;2023-02-28T10:26:01;6.70;;;2.08;;
71395;SDS011;59888;55.814;37.132;2023-02-28T10:28:36;6.03;;;2.22;;
71395;SDS011;59888;55.814;37.132;2023-02-28T10:31:02;5.47;;;2.20;;
71395;SDS011;59888;55.814;37.132;2023-02-28T10:33:35;3.67;;;2.22;;
71395;SDS011;59888;55.814;37.132;2023-02-28T10:36:01;4.38;;;2.20;;
71395;SDS011;59888;55.814;37.132;2023-02-28T10:38:33;4.30;;;2.30;;
71395;SDS011;59888;55.814;37.132;2023-02-28T10:41:11;3.33;;;1.85;;
71395;SDS011;59888;55.814;37.132;2023-02-28T10:43:43;4.05;;;2.10;;
71395;SDS011;59888;55.814;37.132;2023-02-28T10:46:13;4.47;;;2.30;;
71395;SDS011;59888;55.814;37.132;2023-02-28T10:49:07;4.47;;;2.30;;
71395;SDS011;59888;55.814;37.132;2023-02-28T10:51:56;5.40;;;2.40;;
71395;SDS011;59888;55.814;37.132;2023-02-28T10:54:29;6.82;;;2.22;;
71395;SDS011;59888;55.814;37.132;2023-02-28T10:57:17;4.65;;;2.72;;
71395;SDS011;59888;55.814;37.132;2023-02-28T10:59:45;6.15;;;2.40;;
71395;SDS011;59888;55.814;37.132;2023-02-28T11:05:00;4.40;;;2.00;;
71395;SDS011;59888;55.814;37.132;2023-02-28T11:07:26;5.13;;;2.22;;
71395;SDS011;59888;55.814;37.132;2023-02-28T11:09:56;7.47;;;2.45;;
71395;SDS011;59888;55.814;37.132;2023-02-28T11:12:31;4.45;;;2.20;;
71395;SDS011;59888;55.814;37.132;2023-02-28T11:15:41;4.50;;;2.20;;
71395;SDS011;59888;55.814;37.132;2023-02-28T11:18:18;4.47;;;2.17;;
71395;SDS011;59888;55.814;37.132;2023-02-28T11:20:50;4.82;;;2.25;;
71395;SDS011;59888;55.814;37.132;2023-02-28T11:23:18;7.80;;;3.15;;
71395;SDS011;59888;55.814;37.132;2023-02-28T11:25:49;5.25;;;2.47;;
71395;SDS011;59888;55.814;37.132;2023-02-28T11:28:38;4.95;;;2.53;;
71395;SDS011;59888;55.814;37.132;2023-02-28T11:36:27;4.80;;;2.53;;
71395;SDS011;59888;55.814;37.132;2023-02-28T11:38:55;4.47;;;2.33;;
71395;SDS011;59888;55.814;37.132;2023-02-28T11:42:04;5.35;;;2.42;;
71395;SDS011;59888;55.814;37.132;2023-02-28T11:56:25;8.38;;;3.30;;
71395;SDS011;59888;55.814;37.132;2023-02-28T12:02:26;6.18;;;2.65;;
71395;SDS011;59888;55.814;37.132;2023-02-28T12:18:52;6.13;;;3.35;;
71395;SDS011;59888;55.814;37.132;2023-02-28T12:29:24;7.60;;;2.80;;
71395;SDS011;59888;55.814;37.132;2023-02-28T12:32:01;7.03;;;2.90;;
71395;SDS011;59888;55.814;37.132;2023-02-28T12:34:33;4.53;;;2.13;;
71395;SDS011;59888;55.814;37.132;2023-02-28T12:37:04;3.22;;;2.10;;
71395;SDS011;59888;55.814;37.132;2023-02-28T12:39:39;5.85;;;2.53;;
71395;SDS011;59888;55.814;37.132;2023-02-28T12:42:11;8.93;;;3.10;;
71395;SDS011;59888;55.814;37.132;2023-02-28T12:45:31;3.55;;;1.77;;
71395;SDS011;59888;55.814;37.132;2023-02-28T12:47:56;4.65;;;2.50;;
71395;SDS011;59888;55.814;37.132;2023-02-28T12:50:25;4.50;;;2.30;;
71395;SDS011;59888;55.814;37.132;2023-02-28T12:58:27;6.15;;;2.13;;
71395;SDS011;59888;55.814;37.132;2023-02-28T13:01:46;4.07;;;1.92;;
71395;SDS011;59888;55.814;37.132;2023-02-28T13:04:27;4.90;;;2.20;;
71395;SDS011;59888;55.814;37.132;2023-02-28T13:09:57;4.53;;;2.10;;
71395;SDS011;59888;55.814;37.132;2023-02-28T13:12:25;4.90;;;2.25;;
71395;SDS011;59888;55.814;37.132;2023-02-28T13:15:01;3.50;;;1.83;;
71395;SDS011;59888;55.814;37.132;2023-02-28T13:17:31;5.53;;;2.22;;
71395;SDS011;59888;55.814;37.132;2023-02-28T13:19:58;4.55;;;2.20;;
71395;SDS011;59888;55.814;37.132;2023-02-28T13:24:51;5.50;;;2.30;;
71395;SDS011;59888;55.814;37.132;2023-02-28T13:27:31;4.75;;;2.22;;
71395;SDS011;59888;55.814;37.132;2023-02-28T13:30:00;6.10;;;2.20;;
71395;SDS011;59888;55.814;37.132;2023-02-28T13:32:29;4.28;;;1.75;;
71395;SDS011;59888;55.814;37.132;2023-02-28T13:40:00;4.43;;;1.98;;
71395;SDS011;59888;55.814;37.132;2023-02-28T13:42:35;5.10;;;2.42;;
71395;SDS011;59888;55.814;37.132;2023-02-28T13:47:39;5.95;;;2.00;;
71395;SDS011;59888;55.814;37.132;2023-02-28T13:53:02;3.78;;;1.80;;
71395;SDS011;59888;55.814;37.132;2023-02-28T14:04:51;5.22;;;2.47;;
71395;SDS011;59888;55.814;37.132;2023-02-28T14:07:50;4.32;;;2.45;;
71395;SDS011;59888;55.814;37.132;2023-02-28T14:15:57;6.20;;;2.55;;
71395;SDS011;59888;55.814;37.132;2023-02-28T14:18:31;5.57;;;2.65;;
71395;SDS011;59888;55.814;37.132;2023-02-28T14:21:43;6.18;;;2.13;;
71395;SDS011;59888;55.814;37.132;2023-02-28T14:29:14;5.63;;;2.80;;
71395;SDS011;59888;55.814;37.132;2023-02-28T14:37:37;5.50;;;2.20;;
71395;SDS011;59888;55.814;37.132;2023-02-28T14:40:11;6.90;;;3.00;;
71395;SDS011;59888;55.814;37.132;2023-02-28T14:42:47;5.32;;;2.70;;
71395;SDS011;59888;55.814;37.132;2023-02-28T14:45:20;5.82;;;2.58;;
71395;SDS011;59888;55.814;37.132;2023-02-28T14:47:46;5.53;;;2.28;;
71395;SDS011;59888;55.814;37.132;2023-02-28T14:50:21;4.65;;;2.45;;
71395;SDS011;59888;55.814;37.132;2023-02-28T14:52:58;5.85;;;2.65;;
71395;SDS011;59888;55.814;37.132;2023-02-28T14:55:57;4.95;;;2.53;;
71395;SDS011;59888;55.814;37.132;2023-02-28T15:00:56;4.95;;;2.42;;
71395;SDS011;59888;55.814;37.132;2023-02-28T15:08:31;8.10;;;2.55;;
71395;SDS011;59888;55.814;37.132;2023-02-28T15:11:02;7.78;;;3.08;;
71395;SDS011;59888;55.814;37.132;2023-02-28T15:16:20;9.40;;;2.63;;
71395;SDS011;59888;55.814;37.132;2023-02-28T15:19:00;9.13;;;2.78;;
71395;SDS011;59888;55.814;37.132;2023-02-28T15:24:02;4.47;;;2.20;;
71395;SDS011;59888;55.814;37.132;2023-02-28T15:26:30;3.53;;;1.95;;
71395;SDS011;59888;55.814;37.132;2023-02-28T15:29:01;6.72;;;1.98;;
71395;SDS011;59888;55.814;37.132;2023-02-28T15:31:34;6.28;;;2.67;;
71395;SDS011;59888;55.814;37.132;2023-02-28T15:34:05;7.10;;;2.35;;
71395;SDS011;59888;55.814;37.132;2023-02-28T15:36:33;5.47;;;2.42;;
71395;SDS011;59888;55.814;37.132;2023-02-28T15:39:18;5.50;;;2.38;;
71395;SDS011;59888;55.814;37.132;2023-02-28T15:41:49;4.70;;;2.00;;
71395;SDS011;59888;55.814;37.132;2023-02-28T15:44:16;6.15;;;1.70;;
71395;SDS011;59888;55.814;37.132;2023-02-28T15:47:05;4.75;;;2.15;;
71395;SDS011;59888;55.814;37.132;2023-02-28T15:52:12;4.88;;;2.45;;
71395;SDS011;59888;55.814;37.132;2023-02-28T15:54:41;5.97;;;2.47;;
71395;SDS011;59888;55.814;37.132;2023-02-28T15:57:29;4.68;;;2.15;;
71395;SDS011;59888;55.814;37.132;2023-02-28T15:59:59;4.45;;;2.00;;
71395;SDS011;59888;55.814;37.132;2023-02-28T16:02:37;6.93;;;2.65;;
71395;SDS011;59888;55.814;37.132;2023-02-28T16:07:39;6.03;;;2.17;;
71395;SDS011;59888;55.814;37.132;2023-02-28T16:10:08;5.70;;;2.30;;
71395;SDS011;59888;55.814;37.132;2023-02-28T16:12:36;5.28;;;2.22;;
71395;SDS011;59888;55.814;37.132;2023-02-28T16:15:46;5.63;;;2.30;;
71395;SDS011;59888;55.814;37.132;2023-02-28T16:17:54;5.88;;;2.60;;
71395;SDS011;59888;55.814;37.132;2023-02-28T16:20:25;5.72;;;2.65;;
71395;SDS011;59888;55.814;37.132;2023-02-28T16:22:53;5.50;;;2.30;;
71395;SDS011;59888;55.814;37.132;2023-02-28T16:25:20;4.90;;;2.28;;
71395;SDS011;59888;55.814;37.132;2023-02-28T16:27:52;8.77;;;3.75;;
71395;SDS011;59888;55.814;37.132;2023-02-28T16:30:23;10.25;;;4.63;;
71395;SDS011;59888;55.814;37.132;2023-02-28T16:32:51;12.40;;;5.38;;
71395;SDS011;59888;55.814;37.132;2023-02-28T16:35:19;9.13;;;4.32;;
71395;SDS011;59888;55.814;37.132;2023-02-28T16:37:46;8.85;;;4.13;;
71395;SDS011;59888;55.814;37.132;2023-02-28T16:40:15;8.20;;;3.40;;
71395;SDS011;59888;55.814;37.132;2023-02-28T16:42:43;11.60;;;4.88;;
71395;SDS011;59888;55.814;37.132;2023-02-28T16:45:14;9.45;;;3.80;;
71395;SDS011;59888;55.814;37.132;2023-02-28T16:47:44;8.35;;;3.17;;
71395;SDS011;59888;55.814;37.132;2023-02-28T16:50:18;7.70;;;3.10;;
71395;SDS011;59888;55.814;37.132;2023-02-28T16:52:48;6.68;;;3.00;;
71395;SDS011;59888;55.814;37.132;2023-02-28T16:55:17;4.90;;;2.13;;
71395;SDS011;59888;55.814;37.132;2023-02-28T16:57:44;5.63;;;2.20;;
71395;SDS011;59888;55.814;37.132;2023-02-28T17:00:17;5.65;;;2.10;;
71395;SDS011;59888;55.814;37.132;2023-02-28T17:02:43;3.67;;;1.70;;
71395;SDS011;59888;55.814;37.132;2023-02-28T17:05:11;4.63;;;1.92;;
71395;SDS011;59888;55.814;37.132;2023-02-28T17:07:39;3.90;;;1.63;;
71395;SDS011;59888;55.814;37.132;2023-02-28T17:10:12;4.05;;;1.50;;
71395;SDS011;59888;55.814;37.132;2023-02-28T17:12:42;2.60;;;1.30;;
71395;SDS011;59888;55.814;37.132;2023-02-28T17:15:09;2.75;;;1.30;;
71395;SDS011;59888;55.814;37.132;2023-02-28T17:17:36;2.72;;;1.23;;
71395;SDS011;59888;55.814;37.132;2023-02-28T17:20:02;3.85;;;1.63;;
71395;SDS011;59888;55.814;37.132;2023-02-28T17:22:28;2.03;;;1.00;;
71395;SDS011;59888;55.814;37.132;2023-02-28T17:24:54;3.08;;;1.52;;
71395;SDS011;59888;55.814;37.132;2023-02-28T17:27:21;3.30;;;1.40;;
71395;SDS011;59888;55.814;37.132;2023-02-28T17:29:47;2.08;;;1.20;;
71395;SDS011;59888;55.814;37.132;2023-02-28T17:32:13;2.58;;;1.40;;
71395;SDS011;59888;55.814;37.132;2023-02-28T17:34:38;4.80;;;1.50;;
71395;SDS011;59888;55.814;37.132;2023-02-28T17:37:05;3.20;;;1.40;;
71395;SDS011;59888;55.814;37.132;2023-02-28T17:39:30;6.28;;;1.35;;